CST,Max TemperatureF,Mean TemperatureF,Min TemperatureF,Max Dew PointF,MeanDew PointF,Min DewpointF,Max Humidity, Mean Humidity, Min Humidity, Max Sea Level PressureIn, Mean Sea Level PressureIn, Min Sea Level PressureIn, Max VisibilityMiles, Mean VisibilityMiles, Min VisibilityMiles, Max Wind SpeedMPH, Mean Wind SpeedMPH, Max Gust SpeedMPH,PrecipitationIn, CloudCover, Events, WindDirDegrees
2013-1-1,17,2,-14,9,-5,-20,85,67,41,30.14,30.02,29.92,10,10,7,9,2,16,0.00,2,Snow,261
2013-1-2,19,16,12,16,12,9,86,82,73,29.95,29.91,29.88,10,6,3,8,1,,0.00,5,Snow,219
2013-1-3,24,15,6,16,5,-2,93,62,36,30.07,29.95,29.77,10,9,3,10,5,22,0.00,1,Snow,275
2013-1-4,35,19,3,16,10,-2,85,68,44,30.07,29.91,29.79,10,10,10,10,4,22,0.00,0,,289
2013-1-5,28,14,0,19,12,-6,93,75,64,30.06,29.92,29.82,10,10,10,7,2,,0.00,3,,33
2013-1-6,28,14,1,14,7,-6,85,67,43,30.10,30.03,29.90,10,10,10,9,4,16,0.00,1,Snow,333
2013-1-7,41,24,8,19,15,5,86,65,36,29.90,29.73,29.62,10,10,10,12,6,23,0.00,0,,246
2013-1-8,33,18,3,27,16,-2,86,79,60,29.95,29.82,29.62,10,10,5,13,2,21,0.00,2,Snow,124
2013-1-9,32,24,17,21,16,10,80,65,51,30.27,29.96,29.64,10,9,4,17,8,37,0.00,2,Snow,270
2013-1-10,39,22,5,28,14,0,93,64,28,30.28,30.07,29.74,10,9,3,13,2,22,0.09,2,Rain,200
2013-1-11,35,32,30,34,31,28,93,91,87,29.73,29.51,29.32,5,1,0,7,1,,0.44,8,Fog-Rain,104
2013-1-12,37,22,6,36,14,-2,93,73,53,29.94,29.60,29.24,10,8,0,14,6,26,0.08,5,Rain-Snow,260
2013-1-13,10,5,0,0,-4,-8,78,66,52,30.06,29.97,29.92,10,8,2,9,3,20,0.00,3,Snow,318
2013-1-14,12,2,-7,-4,-7,-15,78,64,41,30.24,30.19,30.06,10,10,7,8,3,,0.00,2,,282
2013-1-15,21,12,3,10,4,-2,79,66,46,30.21,29.97,29.61,10,9,1,20,4,28,0.00,3,Snow,226
2013-1-16,24,10,-4,19,4,-15,93,60,32,30.16,29.72,29.44,10,9,1,17,9,28,0.00,2,Snow,293
2013-1-17,10,-2,-14,-13,-17,-22,77,56,31,30.28,30.24,30.16,10,10,10,9,2,21,0.00,2,,289
2013-1-18,19,3,-13,16,6,-20,93,79,66,30.22,29.89,29.70,10,5,0,6,0,,0.13,5,Snow,90
2013-1-19,26,11,-4,21,8,-15,93,74,55,30.01,29.67,29.48,10,5,0,17,4,36,0.17,4,Snow,306
2013-1-20,6,-2,-11,-13,-18,-20,70,58,37,30.21,30.13,30.02,10,10,10,14,7,23,0.00,1,,304
2013-1-21,-11,-20,-29,-22,-30,-38,69,54,41,30.14,30.10,30.06,10,9,5,12,5,25,0.00,1,,300
2013-1-22,5,-10,-25,-17,-23,-36,69,55,36,30.21,30.16,30.09,10,10,10,7,2,,0.00,1,,295
2013-1-23,5,-4,-14,-9,-18,-26,71,58,36,30.52,30.17,30.00,10,9,3,15,4,24,0.00,3,Snow,320
2013-1-24,8,-10,-29,3,-17,-36,79,64,51,30.58,30.44,30.12,10,8,1,10,2,,0.00,2,Snow,217
2013-1-25,19,10,0,7,0,-8,79,64,42,30.17,29.98,29.85,10,7,1,9,5,12,0.11,4,Snow,321
2013-1-26,19,2,-16,9,-2,-24,79,70,57,30.28,30.21,30.12,10,9,2,8,2,,0.00,3,Snow,172
2013-1-27,28,13,-2,27,9,-9,93,72,51,30.12,29.98,29.83,10,9,2,8,2,,0.00,3,Snow,89
2013-1-28,33,28,24,27,25,21,93,85,69,29.86,29.81,29.69,10,8,1,7,1,,0.04,5,Snow,163
2013-1-29,35,28,21,28,23,12,93,78,63,29.70,29.57,29.48,10,8,2,12,4,25,0.02,5,,351
2013-1-30,21,12,3,14,2,-6,74,63,49,29.69,29.59,29.54,10,9,2,13,5,21,0.00,2,Snow,344
2013-1-31,6,-2,-9,-6,-11,-18,66,58,44,30.05,29.80,29.59,10,10,4,13,7,23,0.00,2,Snow,330